createdAt,value
2022-09-24T00:00:52.166Z,19.90
2022-09-24T00:03:18.643Z,19.90
2022-09-24T00:05:45.089Z,19.90
2022-09-24T00:08:11.505Z,19.90
2022-09-24T00:10:37.918Z,20.00
2022-09-24T00:13:04.336Z,19.90
2022-09-24T00:15:30.746Z,19.90
2022-09-24T00:17:57.182Z,19.90
2022-09-24T00:20:23.582Z,19.90
2022-09-24T00:22:50.015Z,19.90
2022-09-24T00:25:16.434Z,19.90
2022-09-24T00:27:42.863Z,19.90
2022-09-24T00:30:09.280Z,19.80
2022-09-24T00:32:35.723Z,19.90
2022-09-24T00:35:02.180Z,19.90
2022-09-24T00:37:28.582Z,19.90
2022-09-24T00:39:54.994Z,19.90
2022-09-24T00:42:21.401Z,19.90
2022-09-24T00:44:47.818Z,19.90
2022-09-24T00:47:14.226Z,19.90
2022-09-24T00:49:40.657Z,19.90
2022-09-24T00:52:07.071Z,19.80
2022-09-24T00:54:33.484Z,19.90
2022-09-24T00:57:00.139Z,19.80
2022-09-24T00:59:26.599Z,19.80
2022-09-24T01:01:53.033Z,19.90
2022-09-24T01:04:19.533Z,19.80
2022-09-24T01:06:45.934Z,19.90
2022-09-24T01:09:12.340Z,19.80
2022-09-24T01:11:38.747Z,19.80
2022-09-24T01:14:05.143Z,19.80
2022-09-24T01:16:31.641Z,19.80
2022-09-24T01:18:58.140Z,19.80
2022-09-24T01:21:24.557Z,19.80
2022-09-24T01:23:50.977Z,19.80
2022-09-24T01:26:17.394Z,19.80
2022-09-24T01:28:43.811Z,19.80
2022-09-24T01:31:10.286Z,19.80
2022-09-24T01:33:36.697Z,19.80
2022-09-24T01:36:03.109Z,19.80
2022-09-24T01:38:29.567Z,19.70
2022-09-24T01:40:56.019Z,19.70
2022-09-24T01:43:22.560Z,19.80
2022-09-24T01:45:48.962Z,19.80
2022-09-24T01:48:15.355Z,19.70
2022-09-24T01:50:41.763Z,19.80
2022-09-24T01:53:08.177Z,19.70
2022-09-24T01:55:34.598Z,19.80
2022-09-24T01:58:01.010Z,19.80
2022-09-24T02:00:27.431Z,19.70
2022-09-24T02:02:53.838Z,19.80
2022-09-24T02:05:20.234Z,19.70
2022-09-24T02:07:46.656Z,19.80
2022-09-24T02:10:13.070Z,19.80
2022-09-24T02:12:39.469Z,19.70
2022-09-24T02:15:05.983Z,19.80
2022-09-24T02:17:32.402Z,19.80
2022-09-24T02:19:58.808Z,19.80
2022-09-24T02:22:25.229Z,19.80
2022-09-24T02:24:51.636Z,19.80
2022-09-24T02:27:18.101Z,19.80
2022-09-24T02:29:44.519Z,19.80
2022-09-24T02:32:10.929Z,19.80
2022-09-24T02:34:37.343Z,19.80
2022-09-24T02:37:03.747Z,19.80
2022-09-24T02:39:30.169Z,19.80
2022-09-24T02:41:56.567Z,19.70
2022-09-24T02:44:22.961Z,19.80
2022-09-24T02:46:49.428Z,19.80
2022-09-24T02:49:15.884Z,19.80
2022-09-24T02:51:42.295Z,19.80
2022-09-24T02:54:08.764Z,19.80
2022-09-24T02:56:35.207Z,19.80
2022-09-24T02:59:01.617Z,19.70
2022-09-24T03:01:28.084Z,19.80
2022-09-24T03:03:54.535Z,19.70
2022-09-24T03:06:20.968Z,19.80
2022-09-24T03:08:47.375Z,19.80
2022-09-24T03:11:18.315Z,19.70
2022-09-24T03:13:45.208Z,19.70
2022-09-24T03:16:11.718Z,19.70
2022-09-24T03:18:38.234Z,19.70
2022-09-24T03:21:04.636Z,19.70
2022-09-24T03:23:31.054Z,19.70
2022-09-24T03:25:58.875Z,19.70
2022-09-24T03:28:25.557Z,19.70
2022-09-24T03:30:51.981Z,19.70
2022-09-24T03:33:18.398Z,19.70
2022-09-24T03:35:44.811Z,19.70
2022-09-24T03:38:11.246Z,19.70
2022-09-24T03:40:37.675Z,19.70
2022-09-24T03:43:04.181Z,19.70
2022-09-24T03:45:30.578Z,19.70
2022-09-24T03:47:57.038Z,19.70
2022-09-24T03:50:23.515Z,19.70
2022-09-24T03:52:49.932Z,19.70
2022-09-24T03:55:16.355Z,19.70
2022-09-24T03:57:42.775Z,19.70
2022-09-24T04:00:09.194Z,19.70
2022-09-24T04:02:35.642Z,19.70
2022-09-24T04:05:02.122Z,19.70
2022-09-24T04:07:28.537Z,19.70
2022-09-24T04:09:54.991Z,19.70
2022-09-24T04:12:21.410Z,19.60
2022-09-24T04:14:47.810Z,19.70
2022-09-24T04:17:14.240Z,19.60
2022-09-24T04:19:40.651Z,19.60
2022-09-24T04:22:07.055Z,19.60
2022-09-24T04:24:33.454Z,19.70
2022-09-24T04:26:59.875Z,19.70
2022-09-24T04:29:26.290Z,19.60
2022-09-24T04:31:52.844Z,19.70
2022-09-24T04:34:19.332Z,19.60
2022-09-24T04:36:45.742Z,19.60
2022-09-24T04:39:12.139Z,19.60
2022-09-24T04:41:38.555Z,19.60
2022-09-24T04:44:04.987Z,19.70
2022-09-24T04:46:31.511Z,19.70
2022-09-24T04:48:58.000Z,19.70
2022-09-24T04:51:24.407Z,19.60
2022-09-24T04:53:50.832Z,19.60
2022-09-24T04:56:17.267Z,19.60
2022-09-24T04:58:43.664Z,19.60
2022-09-24T05:01:10.062Z,19.70
2022-09-24T05:03:36.479Z,19.70
2022-09-24T05:06:02.900Z,19.70
2022-09-24T05:08:29.337Z,19.70
2022-09-24T05:10:55.748Z,19.70
2022-09-24T05:13:22.180Z,19.80
2022-09-24T05:15:48.619Z,19.70
2022-09-24T05:18:15.071Z,19.80
2022-09-24T05:20:41.479Z,19.80
2022-09-24T05:23:07.882Z,19.80
2022-09-24T05:25:34.309Z,19.80
2022-09-24T05:28:00.718Z,19.80
2022-09-24T05:30:27.126Z,19.80
2022-09-24T05:32:53.543Z,19.90
2022-09-24T05:35:19.962Z,19.80
2022-09-24T05:37:46.394Z,19.90
2022-09-24T05:40:12.888Z,19.90
2022-09-24T05:42:39.346Z,19.80
2022-09-24T05:45:05.756Z,19.90
2022-09-24T05:47:32.184Z,19.80
2022-09-24T05:49:58.594Z,19.80
2022-09-24T05:52:25.017Z,19.80
2022-09-24T05:54:51.475Z,19.90
2022-09-24T05:57:17.893Z,19.80
2022-09-24T05:59:44.305Z,19.90
2022-09-24T06:02:10.823Z,19.80
2022-09-24T06:04:37.258Z,19.80
2022-09-24T06:07:03.672Z,19.80
2022-09-24T06:09:30.102Z,19.70
2022-09-24T06:11:56.506Z,19.70
2022-09-24T06:14:22.914Z,19.80
2022-09-24T06:16:49.315Z,19.70
2022-09-24T06:19:15.739Z,19.80
2022-09-24T06:21:42.153Z,19.90
2022-09-24T06:24:08.587Z,19.90
2022-09-24T06:26:34.989Z,19.90
2022-09-24T06:29:04.871Z,19.80
2022-09-24T06:31:31.925Z,19.80
2022-09-24T06:33:58.447Z,19.90
2022-09-24T06:36:24.867Z,19.90
2022-09-24T06:38:51.283Z,19.90
2022-09-24T06:41:17.711Z,20.00
2022-09-24T06:43:44.117Z,20.00
2022-09-24T06:46:10.599Z,20.00
2022-09-24T06:48:37.062Z,20.10
2022-09-24T06:51:03.481Z,20.20
2022-09-24T06:53:29.891Z,20.10
2022-09-24T06:55:56.290Z,20.10
2022-09-24T06:58:22.720Z,20.20
2022-09-24T07:00:49.244Z,20.20
2022-09-24T07:03:15.675Z,20.30
2022-09-24T07:05:43.814Z,20.50
2022-09-24T07:08:10.520Z,20.70
2022-09-24T07:10:36.987Z,20.70
2022-09-24T07:13:03.414Z,20.70
2022-09-24T07:15:29.820Z,20.60
2022-09-24T07:17:56.249Z,20.60
2022-09-24T07:20:22.643Z,20.50
2022-09-24T07:22:49.094Z,20.50
2022-09-24T07:25:15.510Z,20.50
2022-09-24T07:27:41.934Z,20.50
2022-09-24T07:30:08.365Z,20.50
2022-09-24T07:32:34.763Z,20.60
2022-09-24T07:35:01.169Z,20.50
2022-09-24T07:37:27.579Z,20.50
2022-09-24T07:39:53.987Z,20.50
2022-09-24T07:42:20.427Z,20.50
2022-09-24T07:44:46.836Z,20.60
2022-09-24T07:47:15.483Z,20.50
2022-09-24T07:49:42.182Z,20.50
2022-09-24T07:52:08.603Z,20.50
2022-09-24T07:54:35.038Z,20.50
2022-09-24T07:57:01.515Z,20.50
2022-09-24T07:59:27.977Z,20.50
2022-09-24T08:01:54.454Z,20.50
2022-09-24T08:04:20.994Z,20.50
2022-09-24T08:06:47.857Z,20.40
2022-09-24T08:09:14.339Z,20.40
2022-09-24T08:11:40.749Z,20.40
2022-09-24T08:14:07.235Z,20.40
2022-09-24T08:16:33.723Z,20.40
2022-09-24T08:19:00.135Z,20.40
2022-09-24T08:21:26.548Z,20.40
2022-09-24T08:23:52.959Z,20.40
2022-09-24T08:26:19.373Z,20.40
2022-09-24T08:28:45.783Z,20.40
2022-09-24T08:31:12.258Z,20.40
2022-09-24T08:33:38.727Z,20.40
2022-09-24T08:36:05.146Z,20.40
2022-09-24T08:38:31.539Z,20.30
2022-09-24T08:40:58.041Z,20.30
2022-09-24T08:43:24.460Z,20.30
2022-09-24T08:45:50.884Z,20.30
2022-09-24T08:48:17.292Z,20.30
2022-09-24T08:50:43.700Z,20.20
2022-09-24T08:53:10.128Z,20.20
2022-09-24T08:55:36.561Z,20.20
2022-09-24T08:58:02.964Z,20.20
2022-09-24T09:00:29.409Z,19.70
2022-09-24T09:02:55.883Z,20.20
2022-09-24T09:05:22.325Z,20.20
2022-09-24T09:07:48.747Z,20.20
2022-09-24T09:10:15.183Z,20.20
2022-09-24T09:12:41.597Z,20.10
2022-09-24T09:15:08.010Z,20.10
2022-09-24T09:17:34.448Z,20.20
2022-09-24T09:20:00.861Z,20.20
2022-09-24T09:22:27.269Z,20.20
2022-09-24T09:24:53.683Z,20.20
2022-09-24T09:27:20.099Z,20.20
2022-09-24T09:29:46.751Z,20.10
2022-09-24T09:32:13.223Z,20.10
2022-09-24T09:34:39.640Z,20.10
2022-09-24T09:37:06.095Z,20.10
2022-09-24T09:39:32.542Z,20.10
2022-09-24T09:41:58.943Z,20.10
2022-09-24T09:44:25.364Z,20.10
2022-09-24T09:46:51.850Z,20.10
2022-09-24T09:49:18.318Z,20.10
2022-09-24T09:51:44.734Z,20.10
2022-09-24T09:54:11.222Z,20.10
2022-09-24T09:56:37.640Z,20.10
2022-09-24T09:59:04.053Z,20.10
2022-09-24T10:01:30.464Z,20.20
2022-09-24T10:03:56.889Z,20.10
2022-09-24T10:06:23.303Z,20.10
2022-09-24T10:08:49.716Z,20.20
2022-09-24T10:11:16.156Z,20.10
2022-09-24T10:13:42.568Z,20.20
2022-09-24T10:16:09.043Z,20.20
2022-09-24T10:18:35.457Z,20.10
2022-09-24T10:21:01.882Z,20.10
2022-09-24T10:23:28.278Z,20.10
2022-09-24T10:25:54.678Z,20.10
2022-09-24T10:28:21.093Z,20.20
2022-09-24T10:30:47.514Z,20.10
2022-09-24T10:33:13.922Z,20.10
2022-09-24T10:35:40.324Z,20.10
2022-09-24T10:38:06.742Z,20.10
2022-09-24T10:40:33.204Z,20.10
2022-09-24T10:42:59.639Z,20.10
2022-09-24T10:45:26.077Z,20.10
2022-09-24T10:47:52.507Z,20.20
2022-09-24T10:50:18.988Z,20.20
2022-09-24T10:52:45.390Z,20.10
2022-09-24T10:55:11.801Z,20.20
2022-09-24T10:57:38.205Z,20.20
2022-09-24T11:00:04.609Z,20.10
2022-09-24T11:02:31.066Z,20.10
2022-09-24T11:04:57.495Z,20.20
2022-09-24T11:07:23.918Z,20.20
2022-09-24T11:09:50.313Z,20.20
2022-09-24T11:12:16.747Z,20.20
2022-09-24T11:14:43.154Z,20.20
2022-09-24T11:17:09.564Z,20.20
2022-09-24T11:19:35.977Z,20.20
2022-09-24T11:22:02.389Z,20.20
2022-09-24T11:24:28.809Z,20.20
2022-09-24T11:26:55.209Z,20.20
2022-09-24T11:29:21.627Z,20.20
2022-09-24T11:31:48.130Z,20.20
2022-09-24T11:34:14.589Z,20.20
2022-09-24T11:36:41.031Z,20.20
2022-09-24T11:39:07.443Z,18.60
2022-09-24T11:41:33.847Z,20.20
2022-09-24T11:44:00.275Z,20.30
2022-09-24T11:46:26.798Z,20.20
2022-09-24T11:48:53.252Z,20.20
2022-09-24T11:51:19.670Z,20.30
2022-09-24T11:53:46.067Z,20.20
2022-09-24T11:56:13.618Z,20.20
2022-09-24T11:58:40.142Z,20.20
2022-09-24T12:01:06.564Z,20.30
2022-09-24T12:03:33.043Z,20.20
2022-09-24T12:05:59.546Z,20.20
2022-09-24T12:08:25.983Z,20.20
2022-09-24T12:10:52.415Z,20.10
2022-09-24T12:13:18.831Z,20.20
2022-09-24T12:15:45.270Z,20.20
2022-09-24T12:18:11.730Z,20.20
2022-09-24T12:20:38.142Z,20.20
2022-09-24T12:23:04.554Z,20.20
2022-09-24T12:25:30.976Z,20.20
2022-09-24T12:27:57.400Z,20.10
2022-09-24T12:30:23.816Z,20.20
2022-09-24T12:32:50.232Z,20.20
2022-09-24T12:35:16.652Z,20.20
2022-09-24T12:37:43.097Z,20.20
2022-09-24T12:40:09.589Z,20.20
2022-09-24T12:42:36.106Z,20.20
2022-09-24T12:45:02.511Z,20.20
2022-09-24T12:47:28.951Z,20.10
2022-09-24T12:49:56.504Z,20.10
2022-09-24T12:52:22.917Z,20.20
2022-09-24T12:54:49.317Z,20.20
2022-09-24T12:57:15.739Z,20.20
2022-09-24T12:59:42.152Z,20.20
2022-09-24T13:02:08.715Z,20.10
2022-09-24T13:04:35.235Z,20.20
2022-09-24T13:07:01.664Z,20.20
2022-09-24T13:09:28.079Z,20.10
2022-09-24T13:11:54.503Z,20.10
2022-09-24T13:14:20.931Z,20.10
2022-09-24T13:16:47.348Z,20.10
2022-09-24T13:19:13.749Z,20.20
2022-09-24T13:21:40.184Z,20.10
2022-09-24T13:24:06.595Z,20.20
2022-09-24T13:26:33.032Z,20.10
2022-09-24T13:28:59.469Z,20.20
2022-09-24T13:31:25.978Z,20.20
2022-09-24T13:33:52.413Z,20.10
2022-09-24T13:36:18.824Z,20.20
2022-09-24T13:38:45.241Z,20.20
2022-09-24T13:41:11.662Z,20.20
2022-09-24T13:43:38.066Z,20.20
2022-09-24T13:46:04.518Z,20.10
2022-09-24T13:48:30.978Z,20.20
2022-09-24T13:50:57.391Z,20.20
2022-09-24T13:53:23.818Z,20.20
2022-09-24T13:55:50.241Z,20.20
2022-09-24T13:58:16.654Z,20.20
2022-09-24T14:00:43.059Z,20.20
2022-09-24T14:03:09.506Z,20.20
2022-09-24T14:05:35.925Z,20.20
2022-09-24T14:08:02.339Z,20.20
2022-09-24T14:10:28.764Z,20.20
2022-09-24T14:12:55.166Z,20.20
2022-09-24T14:15:21.568Z,20.20
2022-09-24T14:17:47.983Z,20.20
2022-09-24T14:20:14.394Z,20.30
2022-09-24T14:22:40.822Z,20.20
2022-09-24T14:25:07.238Z,20.20
2022-09-24T14:27:33.659Z,20.20
2022-09-24T14:30:00.075Z,20.30
2022-09-24T14:32:26.495Z,20.30
2022-09-24T14:34:52.932Z,20.30
2022-09-24T14:37:19.345Z,20.30
2022-09-24T14:39:45.770Z,20.20
2022-09-24T14:42:12.203Z,20.30
2022-09-24T14:44:38.790Z,20.30
2022-09-24T14:47:05.235Z,20.30
2022-09-24T14:49:31.664Z,20.30
2022-09-24T14:51:58.096Z,20.20
2022-09-24T14:54:24.523Z,20.20
2022-09-24T14:56:50.952Z,20.30
2022-09-24T14:59:17.391Z,20.20
2022-09-24T15:01:43.852Z,20.20
2022-09-24T15:04:10.319Z,20.10
2022-09-24T15:06:36.761Z,20.20
2022-09-24T15:09:03.208Z,20.20
2022-09-24T15:11:29.695Z,20.20
2022-09-24T15:13:56.109Z,20.10
2022-09-24T15:16:22.587Z,20.20
2022-09-24T15:18:49.039Z,20.20
2022-09-24T15:21:15.464Z,20.20
2022-09-24T15:23:41.868Z,20.20
2022-09-24T15:26:08.308Z,20.20
2022-09-24T15:28:34.719Z,20.20
2022-09-24T15:31:01.184Z,20.20
2022-09-24T15:33:27.658Z,20.20
2022-09-24T15:35:54.070Z,20.20
2022-09-24T15:38:20.478Z,20.20
2022-09-24T15:40:46.883Z,20.20
2022-09-24T15:43:13.317Z,20.20
2022-09-24T15:45:39.715Z,20.20
2022-09-24T15:48:06.119Z,20.20
2022-09-24T15:50:32.515Z,20.20
2022-09-24T15:52:58.935Z,20.30
2022-09-24T15:55:25.330Z,20.20
2022-09-24T15:57:51.745Z,20.20
2022-09-24T16:00:18.162Z,20.20
2022-09-24T16:02:44.644Z,20.20
2022-09-24T16:05:11.084Z,20.20
2022-09-24T16:07:37.508Z,20.20
2022-09-24T16:10:03.935Z,20.20
2022-09-24T16:12:30.353Z,20.20
2022-09-24T16:14:56.783Z,20.20
2022-09-24T16:17:23.184Z,20.20
2022-09-24T16:19:49.606Z,20.20
2022-09-24T16:22:20.303Z,20.20
2022-09-24T16:24:47.112Z,20.30
2022-09-24T16:27:13.532Z,20.30
2022-09-24T16:29:39.954Z,20.20
2022-09-24T16:32:06.398Z,20.20
2022-09-24T16:34:32.826Z,20.20
2022-09-24T16:36:59.239Z,20.20
2022-09-24T16:39:25.647Z,20.20
2022-09-24T16:41:52.093Z,20.20
2022-09-24T16:44:18.524Z,20.20
2022-09-24T16:46:45.065Z,20.20
2022-09-24T16:49:11.572Z,20.20
2022-09-24T16:51:38.082Z,20.20
2022-09-24T16:54:04.514Z,20.20
2022-09-24T16:56:30.930Z,20.30
2022-09-24T16:58:57.338Z,20.20
2022-09-24T17:01:23.904Z,20.30
2022-09-24T17:03:50.376Z,20.30
2022-09-24T17:06:16.801Z,20.20
2022-09-24T17:08:43.212Z,20.20
2022-09-24T17:11:09.627Z,20.20
2022-09-24T17:13:36.035Z,20.20
2022-09-24T17:16:02.491Z,20.20
2022-09-24T17:18:28.933Z,20.20
2022-09-24T17:20:55.349Z,20.20
2022-09-24T17:23:21.756Z,20.20
2022-09-24T17:25:48.171Z,20.20
2022-09-24T17:28:14.570Z,20.20
2022-09-24T17:30:40.986Z,20.20
2022-09-24T17:33:25.449Z,20.20
2022-09-24T17:35:53.817Z,20.20
2022-09-24T17:38:20.219Z,20.20
2022-09-24T17:40:46.711Z,20.20
2022-09-24T17:43:13.180Z,20.20
2022-09-24T17:45:39.601Z,20.20
2022-09-24T17:48:06.019Z,20.20
2022-09-24T17:50:32.459Z,20.20
2022-09-24T17:52:58.900Z,20.20
2022-09-24T17:55:25.316Z,20.20
2022-09-24T17:57:51.742Z,20.10
2022-09-24T18:00:18.164Z,20.20
2022-09-24T18:02:44.636Z,20.20
2022-09-24T18:05:11.112Z,20.10
2022-09-24T18:07:37.536Z,20.20
2022-09-24T18:10:03.942Z,20.20
2022-09-24T18:12:30.355Z,20.20
2022-09-24T18:14:56.774Z,20.20
2022-09-24T18:17:23.182Z,20.20
2022-09-24T18:19:49.588Z,20.10
2022-09-24T18:22:15.992Z,20.20
2022-09-24T18:24:42.406Z,20.20
2022-09-24T18:27:08.814Z,20.20
2022-09-24T18:29:35.239Z,20.10
2022-09-24T18:32:01.640Z,20.10
2022-09-24T18:34:28.095Z,20.10
2022-09-24T18:36:54.500Z,20.10
2022-09-24T18:39:25.235Z,20.10
2022-09-24T18:41:52.059Z,20.20
2022-09-24T18:44:18.462Z,20.20
2022-09-24T18:46:44.915Z,20.20
2022-09-24T18:49:11.466Z,20.10
2022-09-24T18:51:38.000Z,20.20
2022-09-24T18:54:04.426Z,20.10
2022-09-24T18:56:30.856Z,20.10
2022-09-24T18:58:57.268Z,20.10
2022-09-24T19:01:23.755Z,20.10
2022-09-24T19:03:50.263Z,20.20
2022-09-24T19:06:16.678Z,20.20
2022-09-24T19:08:43.094Z,20.20
2022-09-24T19:11:09.503Z,20.10
2022-09-24T19:13:35.914Z,20.20
2022-09-24T19:16:02.378Z,20.20
2022-09-24T19:18:28.834Z,20.20
2022-09-24T19:20:55.260Z,20.20
2022-09-24T19:23:21.667Z,20.20
2022-09-24T19:25:48.075Z,20.10
2022-09-24T19:28:14.486Z,20.20
2022-09-24T19:30:40.916Z,20.20
2022-09-24T19:33:07.362Z,20.20
2022-09-24T19:35:33.768Z,20.20
2022-09-24T19:38:00.163Z,20.20
2022-09-24T19:40:26.647Z,20.20
2022-09-24T19:42:53.105Z,20.20
2022-09-24T19:45:19.540Z,20.20
2022-09-24T19:47:45.965Z,20.20
2022-09-24T19:50:17.259Z,20.20
2022-09-24T19:52:44.132Z,20.10
2022-09-24T19:55:10.545Z,20.20
2022-09-24T19:57:36.954Z,20.20
2022-09-24T20:00:03.393Z,20.20
2022-09-24T20:02:29.939Z,20.20
2022-09-24T20:04:56.471Z,20.20
2022-09-24T20:07:22.882Z,20.30
2022-09-24T20:09:49.279Z,20.20
2022-09-24T20:12:15.697Z,20.30
2022-09-24T20:14:42.114Z,20.30
2022-09-24T20:17:08.522Z,20.20
2022-09-24T20:19:34.951Z,20.30
2022-09-24T20:22:01.357Z,20.30
2022-09-24T20:24:27.774Z,20.20
2022-09-24T20:26:54.186Z,20.20
2022-09-24T20:29:20.619Z,20.20
2022-09-24T20:31:47.029Z,20.20
2022-09-24T20:34:13.439Z,20.10
2022-09-24T20:36:39.868Z,20.10
2022-09-24T20:39:06.279Z,20.20
2022-09-24T20:41:32.703Z,20.20
2022-09-24T20:43:59.104Z,20.20
2022-09-24T20:46:25.664Z,20.30
2022-09-24T20:48:52.121Z,20.20
2022-09-24T20:51:18.536Z,20.10
2022-09-24T20:53:44.948Z,20.20
2022-09-24T20:56:11.370Z,20.20
2022-09-24T20:58:37.800Z,20.20
2022-09-24T21:01:04.470Z,20.20
2022-09-24T21:03:43.854Z,20.20
2022-09-24T21:06:11.294Z,20.20
2022-09-24T21:08:37.883Z,20.20
2022-09-24T21:11:04.366Z,20.20
2022-09-24T21:13:30.870Z,20.20
2022-09-24T21:15:57.406Z,20.20
2022-09-24T21:18:28.220Z,20.20
2022-09-24T21:20:59.808Z,20.20
2022-09-24T21:23:26.208Z,20.20
2022-09-24T21:25:54.748Z,20.20
2022-09-24T21:28:21.586Z,20.10
2022-09-24T21:30:48.099Z,20.20
2022-09-24T21:33:14.631Z,20.10
2022-09-24T21:35:41.198Z,20.20
2022-09-24T21:38:07.824Z,20.10
2022-09-24T21:40:34.362Z,20.10
2022-09-24T21:43:00.875Z,20.10
2022-09-24T21:45:27.289Z,18.70
2022-09-24T21:47:53.698Z,20.20
2022-09-24T21:50:20.138Z,20.10
2022-09-24T21:52:46.572Z,20.20
2022-09-24T21:55:12.991Z,20.20
2022-09-24T21:57:39.448Z,20.10
2022-09-24T22:00:05.927Z,20.10
2022-09-24T22:02:32.455Z,20.20
2022-09-24T22:04:58.938Z,20.20
2022-09-24T22:07:25.335Z,20.20
2022-09-24T22:09:51.767Z,20.10
2022-09-24T22:12:18.177Z,20.20
2022-09-24T22:14:44.600Z,20.20
2022-09-24T22:17:11.093Z,20.20
2022-09-24T22:19:37.643Z,20.20
2022-09-24T22:22:04.063Z,20.20
2022-09-24T22:24:30.487Z,20.20
2022-09-24T22:26:56.903Z,20.20
2022-09-24T22:29:23.333Z,20.20
2022-09-24T22:31:49.760Z,20.20
2022-09-24T22:34:16.176Z,20.20
2022-09-24T22:36:42.614Z,20.20
2022-09-24T22:39:09.058Z,20.10
2022-09-24T22:41:35.511Z,20.20
2022-09-24T22:44:01.925Z,20.20
2022-09-24T22:46:28.585Z,20.20
2022-09-24T22:48:55.086Z,20.20
2022-09-24T22:51:21.501Z,20.20
2022-09-24T22:53:47.902Z,20.20
2022-09-24T22:56:14.313Z,20.20
2022-09-24T22:58:40.725Z,20.20
2022-09-24T23:01:07.166Z,20.20
2022-09-24T23:03:33.615Z,20.20
2022-09-24T23:06:00.040Z,20.20
2022-09-24T23:08:26.457Z,20.20
2022-09-24T23:10:52.888Z,20.20
2022-09-24T23:13:19.325Z,20.20
2022-09-24T23:15:45.727Z,20.20
2022-09-24T23:18:12.136Z,20.20
2022-09-24T23:20:38.536Z,20.20
2022-09-24T23:23:04.934Z,20.20
2022-09-24T23:25:31.373Z,20.20
2022-09-24T23:27:57.800Z,20.20
2022-09-24T23:30:24.250Z,20.20
2022-09-24T23:32:50.683Z,20.20
2022-09-24T23:35:17.097Z,20.30
2022-09-24T23:37:43.500Z,20.20
2022-09-24T23:40:09.997Z,20.20
2022-09-24T23:42:36.443Z,20.20
2022-09-24T23:45:02.857Z,20.20
2022-09-24T23:47:33.915Z,20.20
2022-09-24T23:50:02.380Z,20.20
2022-09-24T23:52:28.785Z,20.20
2022-09-24T23:54:55.193Z,20.20
2022-09-24T23:57:21.602Z,20.20
2022-09-24T23:59:48.000Z,20.20
